sensor_id;sensor_type;location;lat;lon;timestamp;pressure;altitude;pressure_sealevel;temperature;humidity
19751;BME280;4663;49.120;9.730;2022-12-24T00:00:22;97486.69;;;6.25;100.00
19751;BME280;4663;49.120;9.730;2022-12-24T00:02:49;97480.44;;;6.33;100.00
19751;BME280;4663;49.120;9.730;2022-12-24T00:05:14;97483.97;;;6.34;100.00
19751;BME280;4663;49.120;9.730;2022-12-24T00:07:40;97483.84;;;6.27;100.00
19751;BME280;4663;49.120;9.730;2022-12-24T00:10:06;97490.69;;;6.30;100.00
19751;BME280;4663;49.120;9.730;2022-12-24T00:12:31;97479.78;;;6.31;100.00
19751;BME280;4663;49.120;9.730;2022-12-24T00:14:57;97460.53;;;6.36;100.00
19751;BME280;4663;49.120;9.730;2022-12-24T00:17:22;97464.53;;;6.40;100.00
19751;BME280;4663;49.120;9.730;2022-12-24T00:19:48;97458.97;;;6.41;100.00
19751;BME280;4663;49.120;9.730;2022-12-24T00:22:13;97473.63;;;6.14;100.00
19751;BME280;4663;49.120;9.730;2022-12-24T00:24:38;97473.63;;;6.14;100.00
19751;BME280;4663;49.120;9.730;2022-12-24T00:27:04;97458.59;;;6.05;100.00
19751;BME280;4663;49.120;9.730;2022-12-24T00:29:30;97472.97;;;6.20;100.00
19751;BME280;4663;49.120;9.730;2022-12-24T00:31:56;97460.03;;;6.24;100.00
19751;BME280;4663;49.120;9.730;2022-12-24T00:34:22;97448.78;;;6.37;100.00
19751;BME280;4663;49.120;9.730;2022-12-24T00:36:48;97477.22;;;6.46;100.00
19751;BME280;4663;49.120;9.730;2022-12-24T00:39:13;97473.28;;;6.25;100.00
19751;BME280;4663;49.120;9.730;2022-12-24T00:41:38;97484.03;;;6.09;100.00
19751;BME280;4663;49.120;9.730;2022-12-24T00:44:06;97493.06;;;6.16;100.00
19751;BME280;4663;49.120;9.730;2022-12-24T00:46:34;97499.78;;;6.12;100.00
19751;BME280;4663;49.120;9.730;2022-12-24T00:49:00;97497.94;;;6.04;100.00
19751;BME280;4663;49.120;9.730;2022-12-24T00:51:26;97498.63;;;6.06;100.00
19751;BME280;4663;49.120;9.730;2022-12-24T00:53:51;97492.09;;;5.92;100.00
19751;BME280;4663;49.120;9.730;2022-12-24T00:56:17;97501.13;;;5.91;100.00
19751;BME280;4663;49.120;9.730;2022-12-24T00:58:43;97509.50;;;5.80;100.00
19751;BME280;4663;49.120;9.730;2022-12-24T01:01:09;97515.38;;;5.58;100.00
19751;BME280;4663;49.120;9.730;2022-12-24T01:03:34;97516.03;;;5.60;100.00
19751;BME280;4663;49.120;9.730;2022-12-24T01:06:10;97527.75;;;5.59;100.00
19751;BME280;4663;49.120;9.730;2022-12-24T01:08:36;97523.19;;;5.35;100.00
19751;BME280;4663;49.120;9.730;2022-12-24T01:11:04;97525.72;;;5.53;100.00
19751;BME280;4663;49.120;9.730;2022-12-24T01:13:29;97539.72;;;5.22;100.00
19751;BME280;4663;49.120;9.730;2022-12-24T01:15:55;97546.06;;;5.13;100.00
19751;BME280;4663;49.120;9.730;2022-12-24T01:18:20;97548.50;;;5.57;100.00
19751;BME280;4663;49.120;9.730;2022-12-24T01:21:00;97551.84;;;5.59;100.00
19751;BME280;4663;49.120;9.730;2022-12-24T01:23:27;97540.28;;;5.42;100.00
19751;BME280;4663;49.120;9.730;2022-12-24T01:25:52;97554.81;;;5.40;100.00
19751;BME280;4663;49.120;9.730;2022-12-24T01:28:19;97545.31;;;5.62;100.00
19751;BME280;4663;49.120;9.730;2022-12-24T01:30:45;97549.50;;;5.56;100.00
19751;BME280;4663;49.120;9.730;2022-12-24T01:33:10;97543.44;;;5.37;100.00
19751;BME280;4663;49.120;9.730;2022-12-24T01:35:40;97559.00;;;5.34;100.00
19751;BME280;4663;49.120;9.730;2022-12-24T01:38:05;97561.66;;;5.34;100.00
19751;BME280;4663;49.120;9.730;2022-12-24T01:40:30;97559.63;;;5.28;100.00
19751;BME280;4663;49.120;9.730;2022-12-24T01:43:16;97556.00;;;5.37;100.00
19751;BME280;4663;49.120;9.730;2022-12-24T01:45:56;97564.69;;;5.47;100.00
19751;BME280;4663;49.120;9.730;2022-12-24T01:50:55;97561.38;;;5.54;100.00
19751;BME280;4663;49.120;9.730;2022-12-24T01:53:22;97578.47;;;5.61;100.00
19751;BME280;4663;49.120;9.730;2022-12-24T01:55:48;97586.97;;;5.48;100.00
19751;BME280;4663;49.120;9.730;2022-12-24T01:58:17;97588.63;;;5.49;100.00
19751;BME280;4663;49.120;9.730;2022-12-24T02:00:44;97588.00;;;5.55;100.00
19751;BME280;4663;49.120;9.730;2022-12-24T02:03:10;97596.16;;;5.45;100.00
19751;BME280;4663;49.120;9.730;2022-12-24T02:05:51;97606.94;;;5.10;100.00
19751;BME280;4663;49.120;9.730;2022-12-24T02:08:18;97610.19;;;5.39;100.00
19751;BME280;4663;49.120;9.730;2022-12-24T02:10:45;97621.84;;;5.21;100.00
19751;BME280;4663;49.120;9.730;2022-12-24T02:13:11;97633.63;;;5.37;100.00
19751;BME280;4663;49.120;9.730;2022-12-24T02:15:56;97637.13;;;5.03;100.00
19751;BME280;4663;49.120;9.730;2022-12-24T02:18:51;97648.69;;;4.77;100.00
19751;BME280;4663;49.120;9.730;2022-12-24T02:24:37;97633.13;;;4.45;100.00
19751;BME280;4663;49.120;9.730;2022-12-24T02:32:39;97653.94;;;4.42;100.00
19751;BME280;4663;49.120;9.730;2022-12-24T02:35:13;97662.50;;;4.45;100.00
19751;BME280;4663;49.120;9.730;2022-12-24T02:37:46;97673.97;;;4.38;100.00
19751;BME280;4663;49.120;9.730;2022-12-24T02:40:19;97665.03;;;4.47;100.00
19751;BME280;4663;49.120;9.730;2022-12-24T02:42:50;97656.81;;;4.22;100.00
19751;BME280;4663;49.120;9.730;2022-12-24T02:45:25;97664.75;;;3.95;100.00
19751;BME280;4663;49.120;9.730;2022-12-24T02:47:53;97665.53;;;4.06;100.00
19751;BME280;4663;49.120;9.730;2022-12-24T02:50:19;97656.25;;;4.37;100.00
19751;BME280;4663;49.120;9.730;2022-12-24T02:52:46;97658.53;;;4.50;100.00
19751;BME280;4663;49.120;9.730;2022-12-24T02:58:05;97676.28;;;4.32;100.00
19751;BME280;4663;49.120;9.730;2022-12-24T03:06:17;97678.38;;;4.65;100.00
19751;BME280;4663;49.120;9.730;2022-12-24T03:09:00;97673.75;;;4.76;100.00
19751;BME280;4663;49.120;9.730;2022-12-24T03:11:29;97672.69;;;4.68;100.00
19751;BME280;4663;49.120;9.730;2022-12-24T03:13:56;97673.78;;;4.57;100.00
19751;BME280;4663;49.120;9.730;2022-12-24T03:16:24;97683.06;;;4.45;100.00
19751;BME280;4663;49.120;9.730;2022-12-24T03:18:53;97690.28;;;4.53;100.00
19751;BME280;4663;49.120;9.730;2022-12-24T03:23:48;97695.72;;;4.43;100.00
19751;BME280;4663;49.120;9.730;2022-12-24T03:26:15;97696.50;;;4.17;100.00
19751;BME280;4663;49.120;9.730;2022-12-24T03:28:42;97692.69;;;4.19;100.00
19751;BME280;4663;49.120;9.730;2022-12-24T03:31:09;97702.75;;;4.44;100.00
19751;BME280;4663;49.120;9.730;2022-12-24T03:33:35;97703.28;;;4.47;100.00
19751;BME280;4663;49.120;9.730;2022-12-24T03:36:02;97688.91;;;4.48;100.00
19751;BME280;4663;49.120;9.730;2022-12-24T03:38:27;97687.59;;;4.53;100.00
19751;BME280;4663;49.120;9.730;2022-12-24T03:40:52;97697.44;;;4.70;100.00
19751;BME280;4663;49.120;9.730;2022-12-24T03:43:18;97711.81;;;4.69;100.00
19751;BME280;4663;49.120;9.730;2022-12-24T03:45:43;97712.66;;;4.70;100.00
19751;BME280;4663;49.120;9.730;2022-12-24T03:48:09;97717.66;;;4.46;100.00
19751;BME280;4663;49.120;9.730;2022-12-24T03:50:34;97723.50;;;4.68;100.00
19751;BME280;4663;49.120;9.730;2022-12-24T03:53:00;97723.59;;;4.77;100.00
19751;BME280;4663;49.120;9.730;2022-12-24T03:55:25;97731.59;;;4.77;100.00
19751;BME280;4663;49.120;9.730;2022-12-24T03:57:50;97740.53;;;4.67;100.00
19751;BME280;4663;49.120;9.730;2022-12-24T04:00:16;97741.97;;;4.80;100.00
19751;BME280;4663;49.120;9.730;2022-12-24T04:02:42;97731.16;;;4.45;100.00
19751;BME280;4663;49.120;9.730;2022-12-24T04:05:12;97727.13;;;4.23;100.00
19751;BME280;4663;49.120;9.730;2022-12-24T04:07:38;97728.06;;;4.31;100.00
19751;BME280;4663;49.120;9.730;2022-12-24T04:10:03;97724.44;;;4.23;100.00
19751;BME280;4663;49.120;9.730;2022-12-24T04:12:29;97731.78;;;4.20;100.00
19751;BME280;4663;49.120;9.730;2022-12-24T04:14:54;97734.69;;;4.27;100.00
19751;BME280;4663;49.120;9.730;2022-12-24T04:17:19;97741.94;;;4.17;100.00
19751;BME280;4663;49.120;9.730;2022-12-24T04:19:45;97735.28;;;4.21;100.00
19751;BME280;4663;49.120;9.730;2022-12-24T04:22:10;97754.22;;;4.09;100.00
19751;BME280;4663;49.120;9.730;2022-12-24T04:24:35;97747.19;;;4.08;100.00
19751;BME280;4663;49.120;9.730;2022-12-24T04:27:01;97731.41;;;4.15;100.00
19751;BME280;4663;49.120;9.730;2022-12-24T04:29:26;97739.03;;;4.10;100.00
19751;BME280;4663;49.120;9.730;2022-12-24T04:31:51;97747.34;;;4.07;100.00
19751;BME280;4663;49.120;9.730;2022-12-24T04:34:17;97753.06;;;4.12;100.00
19751;BME280;4663;49.120;9.730;2022-12-24T04:36:42;97749.56;;;3.93;100.00
19751;BME280;4663;49.120;9.730;2022-12-24T04:39:08;97750.47;;;4.20;100.00
19751;BME280;4663;49.120;9.730;2022-12-24T04:41:33;97742.50;;;3.92;100.00
19751;BME280;4663;49.120;9.730;2022-12-24T04:43:58;97744.09;;;3.85;100.00
19751;BME280;4663;49.120;9.730;2022-12-24T04:46:27;97750.59;;;4.01;100.00
19751;BME280;4663;49.120;9.730;2022-12-24T04:48:54;97746.06;;;4.11;100.00
19751;BME280;4663;49.120;9.730;2022-12-24T04:51:20;97753.28;;;4.01;100.00
19751;BME280;4663;49.120;9.730;2022-12-24T04:53:46;97753.63;;;4.16;100.00
19751;BME280;4663;49.120;9.730;2022-12-24T04:56:18;97756.16;;;4.17;100.00
19751;BME280;4663;49.120;9.730;2022-12-24T04:58:44;97757.69;;;4.38;100.00
19751;BME280;4663;49.120;9.730;2022-12-24T05:01:30;97748.28;;;4.34;100.00
19751;BME280;4663;49.120;9.730;2022-12-24T05:03:56;97758.03;;;4.25;100.00
19751;BME280;4663;49.120;9.730;2022-12-24T05:06:28;97762.38;;;4.26;100.00
19751;BME280;4663;49.120;9.730;2022-12-24T05:08:55;97762.78;;;4.31;100.00
19751;BME280;4663;49.120;9.730;2022-12-24T05:11:21;97770.03;;;4.21;100.00
19751;BME280;4663;49.120;9.730;2022-12-24T05:13:47;97787.22;;;4.18;100.00
19751;BME280;4663;49.120;9.730;2022-12-24T05:16:13;97792.06;;;4.33;100.00
19751;BME280;4663;49.120;9.730;2022-12-24T05:18:39;97790.97;;;4.62;100.00
19751;BME280;4663;49.120;9.730;2022-12-24T05:21:16;97780.59;;;4.41;100.00
19751;BME280;4663;49.120;9.730;2022-12-24T05:23:41;97794.94;;;4.58;100.00
19751;BME280;4663;49.120;9.730;2022-12-24T05:28:54;97783.31;;;4.67;100.00
19751;BME280;4663;49.120;9.730;2022-12-24T05:31:22;97780.81;;;4.47;100.00
19751;BME280;4663;49.120;9.730;2022-12-24T05:33:48;97770.19;;;4.56;100.00
19751;BME280;4663;49.120;9.730;2022-12-24T05:36:14;97773.78;;;4.46;100.00
19751;BME280;4663;49.120;9.730;2022-12-24T05:38:40;97775.16;;;4.32;100.00
19751;BME280;4663;49.120;9.730;2022-12-24T05:41:05;97780.66;;;4.67;100.00
19751;BME280;4663;49.120;9.730;2022-12-24T05:43:31;97778.50;;;4.53;100.00
19751;BME280;4663;49.120;9.730;2022-12-24T05:45:58;97791.44;;;4.39;100.00
19751;BME280;4663;49.120;9.730;2022-12-24T05:48:23;97789.91;;;4.55;100.00
19751;BME280;4663;49.120;9.730;2022-12-24T05:50:49;97779.28;;;4.63;100.00
19751;BME280;4663;49.120;9.730;2022-12-24T05:53:14;97785.84;;;4.51;100.00
19751;BME280;4663;49.120;9.730;2022-12-24T05:55:39;97768.28;;;4.48;100.00
19751;BME280;4663;49.120;9.730;2022-12-24T05:58:05;97769.59;;;4.62;100.00
19751;BME280;4663;49.120;9.730;2022-12-24T06:00:30;97766.22;;;4.60;100.00
19751;BME280;4663;49.120;9.730;2022-12-24T06:02:56;97768.06;;;4.41;100.00
19751;BME280;4663;49.120;9.730;2022-12-24T06:05:21;97773.56;;;4.58;100.00
19751;BME280;4663;49.120;9.730;2022-12-24T06:07:46;97775.47;;;4.47;100.00
19751;BME280;4663;49.120;9.730;2022-12-24T06:10:12;97790.19;;;4.70;100.00
19751;BME280;4663;49.120;9.730;2022-12-24T06:12:37;97786.78;;;4.59;100.00
19751;BME280;4663;49.120;9.730;2022-12-24T06:15:03;97790.97;;;4.62;100.00
19751;BME280;4663;49.120;9.730;2022-12-24T06:17:28;97792.56;;;4.55;100.00
19751;BME280;4663;49.120;9.730;2022-12-24T06:19:54;97791.13;;;4.42;100.00
19751;BME280;4663;49.120;9.730;2022-12-24T06:22:19;97793.16;;;4.30;100.00
19751;BME280;4663;49.120;9.730;2022-12-24T06:24:44;97797.13;;;4.26;100.00
19751;BME280;4663;49.120;9.730;2022-12-24T06:27:10;97802.81;;;4.41;100.00
19751;BME280;4663;49.120;9.730;2022-12-24T06:29:35;97805.78;;;4.38;100.00
19751;BME280;4663;49.120;9.730;2022-12-24T06:32:00;97805.28;;;4.25;100.00
19751;BME280;4663;49.120;9.730;2022-12-24T06:34:26;97796.97;;;4.09;100.00
19751;BME280;4663;49.120;9.730;2022-12-24T06:36:51;97805.16;;;4.26;100.00
19751;BME280;4663;49.120;9.730;2022-12-24T06:39:16;97801.06;;;4.04;100.00
19751;BME280;4663;49.120;9.730;2022-12-24T06:41:42;97810.56;;;4.16;100.00
19751;BME280;4663;49.120;9.730;2022-12-24T06:44:08;97812.03;;;4.29;100.00
19751;BME280;4663;49.120;9.730;2022-12-24T06:46:33;97830.06;;;3.99;100.00
19751;BME280;4663;49.120;9.730;2022-12-24T06:48:59;97835.75;;;4.14;100.00
19751;BME280;4663;49.120;9.730;2022-12-24T06:51:24;97835.34;;;4.08;100.00
19751;BME280;4663;49.120;9.730;2022-12-24T06:53:50;97851.72;;;4.24;100.00
19751;BME280;4663;49.120;9.730;2022-12-24T06:56:15;97848.47;;;4.02;100.00
19751;BME280;4663;49.120;9.730;2022-12-24T06:58:41;97858.44;;;4.28;100.00
19751;BME280;4663;49.120;9.730;2022-12-24T07:01:09;97855.09;;;4.26;100.00
19751;BME280;4663;49.120;9.730;2022-12-24T07:03:35;97857.88;;;4.34;100.00
19751;BME280;4663;49.120;9.730;2022-12-24T07:06:01;97858.44;;;4.28;100.00
19751;BME280;4663;49.120;9.730;2022-12-24T07:08:26;97872.22;;;4.33;100.00
19751;BME280;4663;49.120;9.730;2022-12-24T07:10:52;97869.81;;;4.58;100.00
19751;BME280;4663;49.120;9.730;2022-12-24T07:13:18;97878.44;;;4.52;100.00
19751;BME280;4663;49.120;9.730;2022-12-24T07:15:44;97878.56;;;4.50;100.00
19751;BME280;4663;49.120;9.730;2022-12-24T07:18:10;97874.47;;;4.56;100.00
19751;BME280;4663;49.120;9.730;2022-12-24T07:20:36;97882.03;;;4.14;100.00
19751;BME280;4663;49.120;9.730;2022-12-24T07:23:02;97884.84;;;4.41;100.00
19751;BME280;4663;49.120;9.730;2022-12-24T07:25:27;97883.69;;;4.43;100.00
19751;BME280;4663;49.120;9.730;2022-12-24T07:27:53;97889.03;;;4.43;100.00
19751;BME280;4663;49.120;9.730;2022-12-24T07:30:18;97900.06;;;4.30;100.00
19751;BME280;4663;49.120;9.730;2022-12-24T07:32:44;97895.63;;;4.49;100.00
19751;BME280;4663;49.120;9.730;2022-12-24T07:35:09;97896.44;;;4.31;100.00
19751;BME280;4663;49.120;9.730;2022-12-24T07:37:34;97896.53;;;4.12;100.00
19751;BME280;4663;49.120;9.730;2022-12-24T07:40:00;97892.91;;;4.31;100.00
19751;BME280;4663;49.120;9.730;2022-12-24T07:42:26;97901.31;;;4.08;100.00
19751;BME280;4663;49.120;9.730;2022-12-24T07:44:51;97905.41;;;4.30;100.00
19751;BME280;4663;49.120;9.730;2022-12-24T07:47:16;97912.09;;;4.16;100.00
19751;BME280;4663;49.120;9.730;2022-12-24T07:49:42;97915.69;;;3.97;100.00
19751;BME280;4663;49.120;9.730;2022-12-24T07:52:07;97931.91;;;4.24;100.00
19751;BME280;4663;49.120;9.730;2022-12-24T07:54:33;97923.88;;;4.24;100.00
19751;BME280;4663;49.120;9.730;2022-12-24T07:56:59;97922.28;;;4.03;100.00
19751;BME280;4663;49.120;9.730;2022-12-24T07:59:24;97933.81;;;4.41;100.00
19751;BME280;4663;49.120;9.730;2022-12-24T08:01:50;97940.53;;;4.17;100.00
19751;BME280;4663;49.120;9.730;2022-12-24T08:04:15;97936.38;;;4.33;100.00
19751;BME280;4663;49.120;9.730;2022-12-24T08:06:41;97946.75;;;4.36;100.00
19751;BME280;4663;49.120;9.730;2022-12-24T08:09:06;97942.31;;;4.27;100.00
19751;BME280;4663;49.120;9.730;2022-12-24T08:11:31;97947.84;;;4.43;100.00
19751;BME280;4663;49.120;9.730;2022-12-24T08:13:57;97949.22;;;4.47;100.00
19751;BME280;4663;49.120;9.730;2022-12-24T08:16:22;97943.00;;;4.57;100.00
19751;BME280;4663;49.120;9.730;2022-12-24T08:18:48;97948.66;;;4.54;100.00
19751;BME280;4663;49.120;9.730;2022-12-24T08:21:13;97959.88;;;4.57;100.00
19751;BME280;4663;49.120;9.730;2022-12-24T08:23:38;97951.28;;;4.64;100.00
19751;BME280;4663;49.120;9.730;2022-12-24T08:26:08;97948.53;;;4.73;100.00
19751;BME280;4663;49.120;9.730;2022-12-24T08:28:34;97945.16;;;4.71;100.00
19751;BME280;4663;49.120;9.730;2022-12-24T08:30:59;97955.72;;;4.73;100.00
19751;BME280;4663;49.120;9.730;2022-12-24T08:33:24;97956.47;;;4.65;100.00
19751;BME280;4663;49.120;9.730;2022-12-24T08:35:52;97960.16;;;4.82;100.00
19751;BME280;4663;49.120;9.730;2022-12-24T08:38:18;97970.81;;;4.64;100.00
19751;BME280;4663;49.120;9.730;2022-12-24T08:40:44;97976.97;;;4.75;100.00
19751;BME280;4663;49.120;9.730;2022-12-24T08:43:13;97972.47;;;4.75;100.00
19751;BME280;4663;49.120;9.730;2022-12-24T08:45:38;97979.13;;;4.89;100.00
19751;BME280;4663;49.120;9.730;2022-12-24T08:48:04;97990.63;;;4.71;100.00
19751;BME280;4663;49.120;9.730;2022-12-24T08:50:30;97992.81;;;4.86;100.00
19751;BME280;4663;49.120;9.730;2022-12-24T08:52:55;97989.03;;;4.79;100.00
19751;BME280;4663;49.120;9.730;2022-12-24T08:55:21;97991.84;;;5.05;100.00
19751;BME280;4663;49.120;9.730;2022-12-24T08:57:46;97989.31;;;5.04;100.00
19751;BME280;4663;49.120;9.730;2022-12-24T09:00:12;97992.31;;;5.01;100.00
19751;BME280;4663;49.120;9.730;2022-12-24T09:02:38;97990.22;;;5.22;100.00
19751;BME280;4663;49.120;9.730;2022-12-24T09:05:04;97989.97;;;5.16;100.00
19751;BME280;4663;49.120;9.730;2022-12-24T09:07:32;97989.84;;;5.17;100.00
19751;BME280;4663;49.120;9.730;2022-12-24T09:09:57;97988.84;;;5.81;100.00
19751;BME280;4663;49.120;9.730;2022-12-24T09:12:22;97991.09;;;6.12;99.57
19751;BME280;4663;49.120;9.730;2022-12-24T09:14:50;97990.34;;;6.28;98.75
19751;BME280;4663;49.120;9.730;2022-12-24T09:17:15;97990.91;;;6.40;96.90
19751;BME280;4663;49.120;9.730;2022-12-24T09:19:41;97997.38;;;6.30;96.48
19751;BME280;4663;49.120;9.730;2022-12-24T09:22:06;97995.53;;;6.04;96.82
19751;BME280;4663;49.120;9.730;2022-12-24T09:24:32;98012.97;;;5.81;98.16
19751;BME280;4663;49.120;9.730;2022-12-24T09:26:57;98022.06;;;5.88;98.02
19751;BME280;4663;49.120;9.730;2022-12-24T09:29:24;98017.81;;;5.78;98.16
19751;BME280;4663;49.120;9.730;2022-12-24T09:31:49;98028.31;;;5.53;98.25
19751;BME280;4663;49.120;9.730;2022-12-24T09:34:14;98043.22;;;5.73;99.29
19751;BME280;4663;49.120;9.730;2022-12-24T09:36:40;98036.28;;;6.34;98.36
19751;BME280;4663;49.120;9.730;2022-12-24T09:39:05;98037.69;;;6.73;97.47
19751;BME280;4663;49.120;9.730;2022-12-24T09:41:55;98034.63;;;7.11;94.70
19751;BME280;4663;49.120;9.730;2022-12-24T09:44:44;98052.50;;;7.28;93.92
19751;BME280;4663;49.120;9.730;2022-12-24T09:47:50;98049.50;;;7.48;93.63
19751;BME280;4663;49.120;9.730;2022-12-24T09:53:12;98055.69;;;7.49;92.24
19751;BME280;4663;49.120;9.730;2022-12-24T09:55:47;98060.25;;;7.40;92.26
19751;BME280;4663;49.120;9.730;2022-12-24T09:58:19;98061.63;;;7.61;91.77
19751;BME280;4663;49.120;9.730;2022-12-24T10:00:46;98055.91;;;7.55;91.09
19751;BME280;4663;49.120;9.730;2022-12-24T10:03:16;98061.44;;;7.62;92.19
19751;BME280;4663;49.120;9.730;2022-12-24T10:11:18;98070.16;;;7.56;92.97
19751;BME280;4663;49.120;9.730;2022-12-24T10:16:36;98061.16;;;7.99;93.39
19751;BME280;4663;49.120;9.730;2022-12-24T10:24:28;98071.16;;;7.38;92.61
19751;BME280;4663;49.120;9.730;2022-12-24T10:27:03;98057.47;;;7.91;92.06
19751;BME280;4663;49.120;9.730;2022-12-24T10:29:35;98060.66;;;8.20;89.77
19751;BME280;4663;49.120;9.730;2022-12-24T10:34:39;98040.22;;;8.59;87.09
19751;BME280;4663;49.120;9.730;2022-12-24T10:37:29;98035.69;;;8.59;86.74
19751;BME280;4663;49.120;9.730;2022-12-24T10:39:54;98025.00;;;8.26;85.92
19751;BME280;4663;49.120;9.730;2022-12-24T10:42:22;98029.16;;;8.45;87.96
19751;BME280;4663;49.120;9.730;2022-12-24T10:44:51;98025.34;;;8.23;88.38
19751;BME280;4663;49.120;9.730;2022-12-24T10:47:19;98033.03;;;8.51;87.33
19751;BME280;4663;49.120;9.730;2022-12-24T10:49:52;98044.22;;;8.71;87.44
19751;BME280;4663;49.120;9.730;2022-12-24T10:52:20;98050.50;;;8.55;87.33
19751;BME280;4663;49.120;9.730;2022-12-24T10:57:36;98055.91;;;8.22;86.81
19751;BME280;4663;49.120;9.730;2022-12-24T11:00:03;98066.03;;;8.20;89.88
19751;BME280;4663;49.120;9.730;2022-12-24T11:02:37;98060.16;;;7.91;87.94
19751;BME280;4663;49.120;9.730;2022-12-24T11:05:07;98053.91;;;7.82;89.55
19751;BME280;4663;49.120;9.730;2022-12-24T11:07:59;98049.56;;;7.81;86.55
19751;BME280;4663;49.120;9.730;2022-12-24T11:10:24;98067.97;;;7.43;90.99
19751;BME280;4663;49.120;9.730;2022-12-24T11:12:50;98069.50;;;7.54;91.93
19751;BME280;4663;49.120;9.730;2022-12-24T11:15:19;98065.97;;;7.62;91.40
19751;BME280;4663;49.120;9.730;2022-12-24T11:17:58;98059.56;;;7.46;90.42
19751;BME280;4663;49.120;9.730;2022-12-24T11:20:28;98059.91;;;7.43;89.66
19751;BME280;4663;49.120;9.730;2022-12-24T11:22:54;98064.78;;;7.48;91.20
19751;BME280;4663;49.120;9.730;2022-12-24T11:25:21;98062.53;;;7.26;89.66
19751;BME280;4663;49.120;9.730;2022-12-24T11:27:48;98064.25;;;7.27;89.56
19751;BME280;4663;49.120;9.730;2022-12-24T11:35:31;98062.19;;;7.13;93.05
19751;BME280;4663;49.120;9.730;2022-12-24T11:43:27;98058.78;;;7.71;92.49
19751;BME280;4663;49.120;9.730;2022-12-24T11:46:34;98072.19;;;7.62;90.73
19751;BME280;4663;49.120;9.730;2022-12-24T11:51:40;98081.06;;;7.46;91.12
19751;BME280;4663;49.120;9.730;2022-12-24T11:54:21;98069.66;;;7.61;91.37
19751;BME280;4663;49.120;9.730;2022-12-24T11:56:56;98073.69;;;7.56;90.84
19751;BME280;4663;49.120;9.730;2022-12-24T11:59:39;98083.97;;;7.61;90.56
19751;BME280;4663;49.120;9.730;2022-12-24T12:02:22;98087.25;;;7.38;91.73
19751;BME280;4663;49.120;9.730;2022-12-24T12:04:54;98081.19;;;7.36;92.76
19751;BME280;4663;49.120;9.730;2022-12-24T12:07:30;98079.75;;;6.99;93.04
19751;BME280;4663;49.120;9.730;2022-12-24T12:10:10;98078.47;;;7.20;94.59
19751;BME280;4663;49.120;9.730;2022-12-24T12:12:43;98065.06;;;7.28;93.89
19751;BME280;4663;49.120;9.730;2022-12-24T12:15:19;98079.13;;;7.13;94.57
19751;BME280;4663;49.120;9.730;2022-12-24T12:17:59;98079.47;;;7.18;93.46
19751;BME280;4663;49.120;9.730;2022-12-24T12:20:42;98081.03;;;7.38;93.78
19751;BME280;4663;49.120;9.730;2022-12-24T12:25:49;98079.59;;;7.00;94.33
19751;BME280;4663;49.120;9.730;2022-12-24T12:31:04;98076.97;;;7.25;93.99
19751;BME280;4663;49.120;9.730;2022-12-24T12:33:38;98083.81;;;7.11;94.41
19751;BME280;4663;49.120;9.730;2022-12-24T12:36:07;98075.00;;;6.92;94.77
19751;BME280;4663;49.120;9.730;2022-12-24T12:38:34;98078.47;;;7.20;95.06
19751;BME280;4663;49.120;9.730;2022-12-24T12:49:44;98084.53;;;7.22;95.70
19751;BME280;4663;49.120;9.730;2022-12-24T12:57:45;98091.97;;;7.44;93.56
19751;BME280;4663;49.120;9.730;2022-12-24T13:00:15;98096.00;;;7.49;94.06
19751;BME280;4663;49.120;9.730;2022-12-24T13:21:44;98078.91;;;7.07;93.62
19751;BME280;4663;49.120;9.730;2022-12-24T13:24:22;98088.00;;;7.14;94.62
19751;BME280;4663;49.120;9.730;2022-12-24T13:42:46;98090.81;;;6.43;96.10
19751;BME280;4663;49.120;9.730;2022-12-24T13:47:53;98089.22;;;6.50;95.91
19751;BME280;4663;49.120;9.730;2022-12-24T13:50:27;98085.97;;;6.20;96.11
19751;BME280;4663;49.120;9.730;2022-12-24T13:52:54;98078.97;;;6.27;95.45
19751;BME280;4663;49.120;9.730;2022-12-24T13:55:20;98079.44;;;6.22;96.53
19751;BME280;4663;49.120;9.730;2022-12-24T13:57:51;98094.25;;;6.08;96.36
19751;BME280;4663;49.120;9.730;2022-12-24T14:02:56;98094.88;;;6.02;95.99
19751;BME280;4663;49.120;9.730;2022-12-24T14:07:55;98102.44;;;5.34;99.11
19751;BME280;4663;49.120;9.730;2022-12-24T14:10:24;98108.25;;;5.47;98.93
19751;BME280;4663;49.120;9.730;2022-12-24T14:12:52;98102.88;;;5.47;98.36
19751;BME280;4663;49.120;9.730;2022-12-24T14:15:43;98101.34;;;5.27;98.95
19751;BME280;4663;49.120;9.730;2022-12-24T14:18:09;98097.75;;;5.36;98.39
19751;BME280;4663;49.120;9.730;2022-12-24T14:20:36;98100.97;;;5.40;98.41
19751;BME280;4663;49.120;9.730;2022-12-24T14:23:03;98104.91;;;5.17;98.73
19751;BME280;4663;49.120;9.730;2022-12-24T14:25:30;98106.50;;;5.00;99.31
19751;BME280;4663;49.120;9.730;2022-12-24T14:27:59;98107.38;;;5.01;99.76
19751;BME280;4663;49.120;9.730;2022-12-24T14:30:29;98103.63;;;4.83;99.95
19751;BME280;4663;49.120;9.730;2022-12-24T14:32:55;98094.13;;;4.99;99.77
19751;BME280;4663;49.120;9.730;2022-12-24T14:35:24;98092.47;;;4.88;99.67
19751;BME280;4663;49.120;9.730;2022-12-24T14:40:25;98088.19;;;4.67;100.00
19751;BME280;4663;49.120;9.730;2022-12-24T14:43:16;98085.94;;;4.63;100.00
19751;BME280;4663;49.120;9.730;2022-12-24T14:46:11;98086.22;;;4.69;100.00
19751;BME280;4663;49.120;9.730;2022-12-24T14:48:59;98082.63;;;4.51;100.00
19751;BME280;4663;49.120;9.730;2022-12-24T14:51:34;98093.06;;;4.44;100.00
19751;BME280;4663;49.120;9.730;2022-12-24T15:02:39;98110.25;;;4.41;100.00
19751;BME280;4663;49.120;9.730;2022-12-24T15:05:10;98117.56;;;4.19;100.00
19751;BME280;4663;49.120;9.730;2022-12-24T15:07:39;98104.94;;;4.21;100.00
19751;BME280;4663;49.120;9.730;2022-12-24T15:10:07;98120.25;;;4.19;100.00
19751;BME280;4663;49.120;9.730;2022-12-24T15:12:43;98112.09;;;3.91;100.00
19751;BME280;4663;49.120;9.730;2022-12-24T15:15:14;98112.09;;;3.91;100.00
19751;BME280;4663;49.120;9.730;2022-12-24T15:17:41;98123.91;;;3.79;100.00
19751;BME280;4663;49.120;9.730;2022-12-24T15:20:13;98127.59;;;3.88;100.00
19751;BME280;4663;49.120;9.730;2022-12-24T15:22:40;98118.16;;;4.03;100.00
19751;BME280;4663;49.120;9.730;2022-12-24T15:25:30;98114.38;;;4.06;100.00
19751;BME280;4663;49.120;9.730;2022-12-24T15:27:56;98129.41;;;3.87;100.00
19751;BME280;4663;49.120;9.730;2022-12-24T15:30:27;98138.69;;;3.83;100.00
19751;BME280;4663;49.120;9.730;2022-12-24T15:32:55;98133.06;;;3.86;100.00
19751;BME280;4663;49.120;9.730;2022-12-24T15:38:34;98130.78;;;3.62;100.00